Timeline UpdatesTrip UpdatesNews PostsPvt PostsTravel TipsAdmin PostsConv PostsFollowed PostsChat RequestsBlog PostsPNR Posts

Disclaimer
Search
 
 
Thu Aug 28, 2014 08:38:06 ISTHomeTrainsΣChainsAtlasPNRForumGalleryNewsFAQTripsMembersLoginFeedback
No Recent News for this Train
Other Trains in the News **new
Latest...
.
Mon Jul 28, 2014 (03:38PM)
⇐ Return Journey: Train# 59386-Slip

18238-Slip/Chhattisgarh Express Slip

Jul 12 2013 (12:57PM)
Change Departure Station:
Change Arrival Station:
Post a Train Travel TipPost a Train Travel Tip **new
Post a Comment/Question/Picture/VideoPost a Comment/Question/Picture/Video
Pantry/Catering
✕ NO Pantry Car
✕ NO Catering
RSA - Rake Sharing
.
Rake/Coach Composition
Attached to 59385 Panchvalley Fast Passenger at Amla to run upto Chhindwara ; SP1(Itz attached at the end of the train)
Loco
ASR - NZM > TKD WDP4B/4D NZM-AMLA> AJNI WAP7 AMLA-CWA> RTM WDM3A
News    PNR    Forum    Time-Table    Availability    Fare Chart    Map    Arr/Dep History    Trips    Gallery    ΣChains    X/O    Timeline    
Travel Time: 12h 0m    21 halts    Distance: 474 km    Avg Speed: 39 km/hr
Type: Mail/Express
Zone: CR/Central
Departs @ 16:30 (Avg 41m late)
Platform# 2
SMTWTFS
Bina Junction/BINA 
Arrives @ 04:30 +1 night
Platform# 3
SMTWTFS
Chhindwara Junction/CWA 

21 halts. 67 intermediate Stations between Bina Junction and Chhindwara Junction

Show ALL intermediate Stations  Show Old Time-Table

#CodeStation NameX/OArrivesAvgDepartsAvgHaltPFDay#KmSpeedElevZoneAddress
1ASRAmritsar Junction (5)  -16:15+821-1071.177233mNRAmritsar 143002, Punjab
2JNLJandiala (2)  16:30+1816:32+182m21-1051.980238mNRJandiala, Punjab
3BEASBeas Junction (2)  16:50+2116:52+212m21-1028.061238mNRBeas, Punjab
4KREKartarpur (2)X  17:13+2117:15+212m11-1006.673236mNRKartarpur, Punjab
5JUCJalandhar City Junction (5)X  17:27+2417:35+238m21-991.922239mNRJalandhar 144001, Punjab
6JRCJalandhar Cantt. Junction (3)X  17:48+1917:50+292m21-987.165239mNRNear Rama Mandi, Punjab
7PGWPhagwara Junction (3)X  18:05+3118:07+312m11-970.842245mNRPhagwara, Punjab
8GRYGoraya (2)XO  18:21+2918:23+322m11-960.933240mNRGoraya, Punjab
9PHRPhillaur Junction (3)  18:46+2218:48+212m11-948.246246mNRPhillaur, Punjab
10LDHLudhiana Junction (7)X  19:05+2019:15+2110m11-935.122246mNRLudhiana 141001, Punjab
11SNLSanehwal (3)X  19:56+419:58+72m21-920.055260mNRLudhiana, Punjab
12DOADoraha (2)X  20:06+1620:08+162m21-912.757261mNRDoraha, Punjab
13CHAChawapail (2)X  20:18+1420:20+142m21-903.266267mNRLudhiana, Punjab
14KNNKhanna (3)  20:30+1620:32+162m21-892.354269mNRNH 1, Punjab
15GVGMandi Gobindgarh (2)  20:41+1720:43+172m11-884.249268mNRMandi Gobindgarh, Punjab
16SIRSirhind Junction (3)  20:55+1720:57+182m21-874.465271mNRSirhind, Punjab
17RPJRajpura Junction (3)X  21:20+1921:22+202m21-849.656272mNRNH-1, Punjab
18UBCAmbala City (3)X  21:44+1821:46+192m11-829.121273mNRNH-1, Haryana
19UMBAmbala Cantt. Junction (7)X  22:08+1622:20+1512m11-821.568278mNRAmbala 133001, Haryana
20RAABarara (2)  22:42+2322:44+232m11-796.771279mNRBarara, Haryana
21JUDWJagadhri Workshop (2)  23:02+2423:04+242m11-775.543280mNRRailway Workshop Road, Haryana
22JUDYamunanagar-Jagadhri (3)  23:11+2423:13+252m21-770.535275mNRYamunanagar, Haryana
23SRESaharanpur Junction (6)X  00:05+700:15+810m--2-740.468276mNRSaharanpur, Uttar Pradesh
24DBDDeoband (2)  00:45+2300:47+242m--2-706.276258mNRSaharanpur, Uttar Pradesh
25MOZMuzaffarnagar (3)  01:06+2701:08+272m--2-682.151247mNRMuzaffarNagar, Uttar Pradesh
26KATKhatauli (2)X  01:34+2201:36+262m--2-660.054239mNRKhatauli, Uttar Pradesh
27DRLADaurala (1)  01:56+2401:58+242m12-642.061232mNRMeerut, Uttar Pradesh
28MUTMeerut Cantt. (2)  02:09+2602:11+272m--2-630.929230mNRMeerut, Uttar Pradesh
29MTCMeerut City Junction (6)  02:20+2602:25+255m22-626.583229mNRMeerut, Uttar Pradesh
30MDNRModinagar (2)  02:39+2902:41+282m--2-607.178221mNRGhaziabad, Uttar Pradesh
31GUHGuldhar (2)  02:55+2902:57+282m--2-589.019224mNRGhaziabad, Uttar Pradesh
32GZBGhaziabad Junction (6)  03:28+1603:30+162m32-579.350217mNRGhaziabad, Uttar Pradesh
33SBBSahibabad Junction (5)  03:38+2403:40+232m--2-572.627209mNRGhaziabad, Uttar Pradesh
34NZMDelhi Hazrat Nizamuddin (7)X  04:15+1604:40+1725m22-556.660209mNRNew Delhi 110013, Delhi NCT
35BVHBallabgarh (5)X  05:09+1805:11+182m42-527.742203mNRFaridabad, Haryana
36PWLPalwal (8)X  05:41+1405:43+162m42-506.585200mNRPalwal, Haryana
37KSVKosi Kalan (3)X  06:13+2306:15+222m22-464.156189mNCRKosi Kalan, Uttar Pradesh
38CHJChata (4)X  06:26+2306:28+252m--2-453.869 NCRChhata, Uttar Pradesh
39MTJMathura Junction (10)X  06:55+2607:00+265m12-422.653179mNCRMathura, Uttar Pradesh
40RKMRaja Ki Mandi (4)XO  07:56+3407:58+342m22-372.98170mNCRAgra, Uttar Pradesh
41AGCAgra Cantt. (6)X  08:30+1408:40+1610m12-368.979174mNCRAgra, Uttar Pradesh
42DHODholpur Junction (3)X  09:20+2409:22+392m32-316.362177mNCRDholpur, Rajasthan
43MRAMorena (3)X  09:48+4109:50+472m12-289.583176mNCRMorena, Madhya Pradesh
44BAOBanmorXO  10:04+5310:06+1:002m--2-270.230189mNCRGwalior, Madhya Pradesh
45GWLGwalior Junction (4)XO  10:45+5310:50+595m12-250.967214mNCRGwalior, Madhya Pradesh
46DBADabra (3)  11:28+1:0011:30+1:002m--2-208.663 NCRDabra(District-Gwalior), Madhya Pradesh
47SORSonagir (2)O  11:48+1:0211:50+1:032m--2-189.830211mNCRDatia, Madhya Pradesh
48DAADatia (2)X  12:13+5612:15+562m--2-178.327264mNCRDatia, Madhya Pradesh
49JHSJhansi Junction (7)  13:10+3013:20+3610m--2-153.267259mNCRJhansi, Uttar Pradesh
50BABBabina (3)X  13:43+4813:45+492m12-127.752285mNCRBabina, Uttar Pradesh
51BZYBasai (3)X  13:59+4814:01+492m12-115.655287mNCR07522289600(Gate ManMob. - 9452701575), Madhya Pradesh
52TBTTalbahat (4)X  14:15+5014:17+532m22-102.883314mNCRKhaniyadhana Station Rd, Madhya Pradesh
53LARLalitpur (3)  14:46+5514:48+562m12-62.985373mNCRLalitpur, Uttar Pradesh
54DUADhaura (3)XO  15:08+1:0715:10+1:092m--2-34.628407mNCRDhaura Tanda, Madhya Pradesh
55BINA»Bina Junction (4)»X  16:25+4016:30+415m220.069414mWCRJn Pt - KATNI/GUNA/ BPL/JHS, Madhya Pradesh
56MABAMandi Bamora (3)XO  16:45+4816:47+502m2217.278413mWCRState Highway 14, Madhya Pradesh
57BAQGanj Basoda (4)  17:09+5217:11+522m2245.884 WCRVidisha, Madhya Pradesh
58BHSVidisha (3)X  17:39+1:0017:41+1:022m2285.154 WCRVidisha, Madhya Pradesh
59BPLBhopal Junction (6)X  18:40+5518:45+575m12138.638497mWCRBhopal, Madhya Pradesh
60HBJBhopal HabibGanj (5)  18:55+1:0118:57+1:022m--2144.877496mWCRHabibGanj, Madhya Pradesh
61ODGObaidulla GanjX  19:20+1:4019:22+1:382m--2174.533 WCRObaidullaganj Raisen Dist., Madhya Pradesh
62HBDHoshangabad (2)XO  20:30+4620:32+462m--2212.229308mWCRHoshangabad, Madhya Pradesh
63ETItarsi Junction (7)  21:10+3721:15+435m--2230.368329mWCRItarsi 461111, Madhya Pradesh
64GDYAGhoradongri (3)X  22:17+4722:19+482m--2300.749 CRBetul, Madhya Pradesh
65BZUBetul (3)  23:03+5023:05+512m--2336.646644mCRBetul, Madhya Pradesh
66AMLAAmla Junction (5)23:35+4301:10+1095m--2359.539733mCRAmla Distt. Betul, Madhya Pradesh
67JMVJambara (1)  01:31-01:33-2m13373.250706mCRAmla, Madhya Pradesh
68BCRDBarchi Road (1)O  01:41-01:43-2m13379.865713mCRState Highway 26, Madhya Pradesh
69BXYBordhal (1)O  01:49-01:51-2m13386.346710mCRAmla, Madhya Pradesh
70NVGNavegaon (1)  02:12-02:14-2m13402.256794mCRNayagaon, Madhya Pradesh
71HRGHirdagarh (2)O  02:30-02:32-2m--3417.147721mCRDongar Parasia, Madhya Pradesh
72JNOJunnor Deo (2)O  02:45-02:47-2m--3427.236762mCRDongar Parasia, Madhya Pradesh
73IKRIklehra (1)  03:08-03:10-2m13439.742771mCRDongar Parasia, Madhya Pradesh
74PUXParasia (2)O  03:19-03:21-2m--3446.0150775mCRDongar Parasia, Madhya Pradesh
75KUXKhirsadoh Junction (2)  03:24-03:26-2m--3453.521769mCRChhindwara, Madhya Pradesh
76GNWGangiwara (1)  03:48-03:50-2m13461.120714mCRChhindwara, Madhya Pradesh
77CWA•Chhindwara Junction (3)•  04:30--33474.4-675mSECRNH 69A Seoni Road, Madhya Pradesh
Scroll to Top
Scroll to Bottom